createdAt,value
2019-05-22T00:01:16.661Z,83.39
2019-05-22T00:03:43.296Z,84.09
2019-05-22T00:06:09.952Z,83.81
2019-05-22T00:08:36.564Z,83.75
2019-05-22T00:11:03.213Z,83.47
2019-05-22T00:13:29.886Z,83.39
2019-05-22T00:15:56.486Z,83.16
2019-05-22T00:18:23.098Z,83.21
2019-05-22T00:20:49.734Z,82.88
2019-05-22T00:23:16.328Z,83.40
2019-05-22T00:25:42.945Z,83.42
2019-05-22T00:28:09.685Z,83.12
2019-05-22T00:30:36.420Z,83.03
2019-05-22T00:33:03.116Z,83.22
2019-05-22T00:35:31.320Z,82.88
2019-05-22T00:37:57.924Z,83.12
2019-05-22T00:40:24.513Z,82.91
2019-05-22T00:43:03.305Z,83.40
2019-05-22T00:45:20.759Z,82.95
2019-05-22T00:47:47.347Z,83.01
2019-05-22T00:50:13.950Z,82.95
2019-05-22T00:52:40.570Z,82.77
2019-05-22T00:55:07.189Z,82.98
2019-05-22T00:57:33.782Z,83.22
2019-05-22T01:00:00.423Z,83.14
2019-05-22T01:02:27.010Z,83.16
2019-05-22T01:04:53.658Z,82.98
2019-05-22T01:07:20.297Z,82.78
2019-05-22T01:09:46.883Z,82.87
2019-05-22T01:12:13.536Z,83.28
2019-05-22T01:14:42.979Z,83.09
2019-05-22T01:17:08.449Z,83.18
2019-05-22T01:19:35.063Z,83.27
2019-05-22T01:22:01.816Z,83.12
2019-05-22T01:24:28.575Z,82.93
2019-05-22T01:26:55.162Z,83.08
2019-05-22T01:29:21.799Z,82.42
2019-05-22T01:31:48.458Z,82.65
2019-05-22T01:34:15.055Z,83.13
2019-05-22T01:36:41.735Z,82.98
2019-05-22T01:39:08.359Z,82.65
2019-05-22T01:41:34.986Z,82.92
2019-05-22T01:44:01.592Z,83.07
2019-05-22T01:46:28.222Z,82.86
2019-05-22T01:48:54.924Z,82.92
2019-05-22T01:51:21.506Z,82.93
2019-05-22T01:53:48.115Z,83.02
2019-05-22T01:56:14.762Z,82.89
2019-05-22T01:58:41.386Z,82.96
2019-05-22T02:01:08.063Z,83.05
2019-05-22T02:03:34.664Z,83.16
2019-05-22T02:06:01.351Z,83.08
2019-05-22T02:08:28.181Z,82.87
2019-05-22T02:10:54.762Z,83.12
2019-05-22T02:13:21.388Z,83.19
2019-05-22T02:15:47.981Z,83.14
2019-05-22T02:18:14.633Z,83.30
2019-05-22T02:20:41.269Z,83.47
2019-05-22T02:23:07.858Z,83.68
2019-05-22T02:25:34.496Z,83.80
2019-05-22T02:28:01.164Z,83.83
2019-05-22T02:30:27.825Z,83.77
2019-05-22T02:32:54.433Z,83.71
2019-05-22T02:35:21.023Z,83.60
2019-05-22T02:37:47.651Z,83.55
2019-05-22T02:40:14.245Z,83.63
2019-05-22T02:42:40.882Z,83.74
2019-05-22T02:45:07.494Z,83.80
2019-05-22T02:47:34.155Z,83.83
2019-05-22T02:50:00.768Z,83.88
2019-05-22T02:52:27.430Z,83.98
2019-05-22T02:54:54.045Z,84.04
2019-05-22T02:57:20.635Z,84.06
2019-05-22T02:59:47.243Z,84.04
2019-05-22T03:02:13.863Z,84.04
2019-05-22T03:04:40.445Z,84.02
2019-05-22T03:07:07.066Z,83.98
2019-05-22T03:09:33.706Z,84.01
2019-05-22T03:12:00.296Z,83.96
2019-05-22T03:14:26.914Z,83.95
2019-05-22T03:16:53.577Z,83.93
2019-05-22T03:19:20.206Z,83.93
2019-05-22T03:21:46.809Z,83.87
2019-05-22T03:24:13.551Z,83.82
2019-05-22T03:26:40.156Z,83.79
2019-05-22T03:29:06.753Z,83.81
2019-05-22T03:31:33.394Z,83.86
2019-05-22T03:34:00.000Z,83.87
2019-05-22T03:36:26.713Z,83.74
2019-05-22T03:38:53.324Z,83.67
2019-05-22T03:41:19.915Z,83.61
2019-05-22T03:43:46.616Z,83.66
2019-05-22T03:46:13.213Z,83.63
2019-05-22T03:48:39.816Z,83.60
2019-05-22T03:51:06.447Z,83.59
2019-05-22T03:53:33.054Z,83.58
2019-05-22T03:55:59.668Z,83.68
2019-05-22T03:58:26.292Z,83.65
2019-05-22T04:00:53.113Z,83.64
2019-05-22T04:03:19.707Z,83.66
2019-05-22T04:05:46.310Z,83.64
2019-05-22T04:08:12.920Z,83.50
2019-05-22T04:10:41.131Z,83.66
2019-05-22T04:13:07.967Z,83.61
2019-05-22T04:15:34.645Z,83.51
2019-05-22T04:18:01.312Z,83.53
2019-05-22T04:20:28.059Z,83.40
2019-05-22T04:22:54.661Z,83.46
2019-05-22T04:25:21.244Z,83.33
2019-05-22T04:27:47.867Z,83.39
2019-05-22T04:30:14.470Z,83.34
2019-05-22T04:32:41.072Z,83.46
2019-05-22T04:35:07.775Z,83.34
2019-05-22T04:37:34.427Z,83.13
2019-05-22T04:40:01.051Z,83.11
2019-05-22T04:42:27.668Z,83.21
2019-05-22T04:44:54.291Z,83.18
2019-05-22T04:47:20.964Z,83.19
2019-05-22T04:50:05.919Z,83.18
2019-05-22T04:52:15.934Z,83.21
2019-05-22T04:54:42.571Z,83.25
2019-05-22T04:57:09.192Z,83.23
2019-05-22T04:59:35.778Z,83.30
2019-05-22T05:02:02.402Z,83.26
2019-05-22T05:04:29.065Z,83.25
2019-05-22T05:06:55.714Z,83.22
2019-05-22T05:09:22.325Z,83.17
2019-05-22T05:11:48.999Z,83.22
2019-05-22T05:14:15.599Z,83.17
2019-05-22T05:16:42.201Z,83.37
2019-05-22T05:19:08.818Z,82.89
2019-05-22T05:21:35.522Z,82.58
2019-05-22T05:24:02.186Z,82.83
2019-05-22T05:26:28.825Z,82.88
2019-05-22T05:28:55.535Z,82.82
2019-05-22T05:31:22.365Z,82.62
2019-05-22T05:33:48.977Z,82.63
2019-05-22T05:36:15.567Z,82.70
2019-05-22T05:38:42.314Z,82.83
2019-05-22T05:41:08.923Z,82.74
2019-05-22T05:43:35.635Z,82.62
2019-05-22T05:46:02.273Z,82.58
2019-05-22T05:48:28.904Z,82.59
2019-05-22T05:50:55.503Z,82.49
2019-05-22T05:53:22.105Z,82.61
2019-05-22T05:55:48.716Z,82.70
2019-05-22T05:58:15.309Z,82.55
2019-05-22T06:00:44.620Z,82.48
2019-05-22T06:03:10.281Z,82.44
2019-05-22T06:05:36.874Z,82.47
2019-05-22T06:08:03.488Z,82.35
2019-05-22T06:10:30.107Z,82.39
2019-05-22T06:12:56.788Z,82.48
2019-05-22T06:15:23.445Z,82.45
2019-05-22T06:17:50.091Z,82.54
2019-05-22T06:20:16.849Z,82.56
2019-05-22T06:22:43.465Z,82.73
2019-05-22T06:25:10.251Z,82.40
2019-05-22T06:27:36.919Z,82.25
2019-05-22T06:30:03.577Z,82.22
2019-05-22T06:32:30.288Z,82.48
2019-05-22T06:34:59.680Z,82.36
2019-05-22T06:37:25.204Z,82.32
2019-05-22T06:39:51.845Z,82.40
2019-05-22T06:42:18.442Z,81.79
2019-05-22T06:44:45.068Z,81.57
2019-05-22T06:47:11.692Z,81.69
2019-05-22T06:49:38.406Z,81.77
2019-05-22T06:52:05.033Z,81.78
2019-05-22T06:54:31.670Z,82.02
2019-05-22T06:56:58.306Z,82.05
2019-05-22T06:59:25.026Z,81.68
2019-05-22T07:01:51.658Z,81.77
2019-05-22T07:04:18.276Z,81.82
2019-05-22T07:06:44.944Z,81.90
2019-05-22T07:09:11.547Z,81.94
2019-05-22T07:11:38.170Z,81.88
2019-05-22T07:14:04.762Z,81.78
2019-05-22T07:16:31.419Z,82.02
2019-05-22T07:18:58.010Z,82.22
2019-05-22T07:21:33.557Z,82.22
2019-05-22T07:23:52.960Z,81.55
2019-05-22T07:26:19.591Z,81.41
2019-05-22T07:28:46.226Z,81.17
2019-05-22T07:31:12.908Z,81.30
2019-05-22T07:33:39.503Z,81.22
2019-05-22T07:36:10.094Z,81.22
2019-05-22T07:38:34.491Z,81.33
2019-05-22T07:41:01.130Z,81.42
2019-05-22T07:43:27.894Z,81.04
2019-05-22T07:45:54.519Z,81.10
2019-05-22T07:48:21.198Z,81.00
2019-05-22T07:50:49.158Z,81.21
2019-05-22T07:53:16.105Z,81.18
2019-05-22T07:55:42.794Z,81.16
2019-05-22T07:58:09.417Z,81.41
2019-05-22T08:00:36.015Z,81.29
2019-05-22T08:03:02.655Z,81.31
2019-05-22T08:05:29.288Z,80.89
2019-05-22T08:07:55.921Z,80.89
2019-05-22T08:10:22.567Z,80.97
2019-05-22T08:12:49.199Z,80.92
2019-05-22T08:15:15.980Z,80.91
2019-05-22T08:17:42.611Z,80.89
2019-05-22T08:20:09.305Z,80.80
2019-05-22T08:22:35.927Z,80.64
2019-05-22T08:25:02.601Z,80.52
2019-05-22T08:27:29.260Z,80.43
2019-05-22T08:29:57.006Z,80.38
2019-05-22T08:32:23.830Z,80.41
2019-05-22T08:34:50.462Z,80.40
2019-05-22T08:37:17.066Z,80.27
2019-05-22T08:39:43.746Z,80.21
2019-05-22T08:42:10.339Z,79.91
2019-05-22T08:44:36.917Z,79.61
2019-05-22T08:47:03.569Z,79.50
2019-05-22T08:49:30.157Z,79.82
2019-05-22T08:51:56.766Z,79.20
2019-05-22T08:54:23.411Z,79.06
2019-05-22T08:56:50.010Z,78.26
2019-05-22T08:59:19.949Z,78.40
2019-05-22T09:01:45.026Z,78.58
2019-05-22T09:04:11.871Z,78.73
2019-05-22T09:06:38.549Z,78.60
2019-05-22T09:09:05.128Z,77.34
2019-05-22T09:11:31.770Z,76.52
2019-05-22T09:13:58.398Z,76.40
2019-05-22T09:16:25.002Z,76.62
2019-05-22T09:18:51.746Z,76.82
2019-05-22T09:21:18.415Z,77.06
2019-05-22T09:23:45.010Z,77.38
2019-05-22T09:26:11.615Z,77.70
2019-05-22T09:28:38.214Z,77.76
2019-05-22T09:31:05.640Z,77.89
2019-05-22T09:33:32.525Z,77.78
2019-05-22T09:35:59.161Z,77.84
2019-05-22T09:38:25.804Z,77.81
2019-05-22T09:40:52.415Z,78.19
2019-05-22T09:43:19.089Z,77.82
2019-05-22T09:45:45.702Z,77.81
2019-05-22T09:48:12.293Z,78.01
2019-05-22T09:50:38.935Z,78.06
2019-05-22T09:53:05.537Z,78.08
2019-05-22T09:55:32.177Z,78.09
2019-05-22T09:57:58.774Z,78.00
2019-05-22T10:00:25.385Z,77.38
2019-05-22T10:02:52.044Z,78.00
2019-05-22T10:05:18.639Z,78.12
2019-05-22T10:07:59.083Z,77.20
2019-05-22T10:10:13.595Z,77.21
2019-05-22T10:12:40.245Z,76.80
2019-05-22T10:15:06.987Z,77.02
2019-05-22T10:17:33.637Z,77.56
2019-05-22T10:20:00.255Z,76.70
2019-05-22T10:22:26.870Z,75.28
2019-05-22T10:25:12.000Z,75.94
2019-05-22T10:27:21.826Z,73.76
2019-05-22T10:29:48.505Z,74.62
2019-05-22T10:32:15.103Z,74.51
2019-05-22T10:34:41.689Z,74.25
2019-05-22T10:37:08.829Z,73.67
2019-05-22T10:39:35.474Z,74.18
2019-05-22T10:42:02.073Z,74.60
2019-05-22T10:44:28.698Z,74.77
2019-05-22T10:46:55.387Z,74.74
2019-05-22T10:49:22.097Z,74.83
2019-05-22T10:51:48.694Z,75.02
2019-05-22T10:54:15.309Z,74.86
2019-05-22T10:56:41.921Z,74.81
2019-05-22T10:59:08.529Z,74.81
2019-05-22T11:01:37.535Z,75.03
2019-05-22T11:04:03.555Z,75.06
2019-05-22T11:06:30.156Z,75.36
2019-05-22T11:08:56.800Z,75.27
2019-05-22T11:11:23.403Z,75.47
2019-05-22T11:14:00.525Z,75.67
2019-05-22T11:16:18.339Z,75.65
2019-05-22T11:18:46.953Z,75.74
2019-05-22T11:21:13.368Z,75.84
2019-05-22T11:23:51.472Z,75.97
2019-05-22T11:26:08.286Z,75.93
2019-05-22T11:28:34.928Z,76.14
2019-05-22T11:31:01.610Z,76.24
2019-05-22T11:33:29.461Z,76.23
2019-05-22T11:35:56.147Z,76.33
2019-05-22T11:38:22.771Z,76.38
2019-05-22T11:40:49.401Z,76.32
2019-05-22T11:43:16.017Z,76.38
2019-05-22T11:45:45.217Z,76.44
2019-05-22T11:48:10.970Z,76.69
2019-05-22T11:50:37.580Z,76.74
2019-05-22T11:53:04.300Z,76.72
2019-05-22T11:55:44.424Z,75.61
2019-05-22T11:57:59.512Z,75.26
2019-05-22T12:00:26.134Z,74.50
2019-05-22T12:02:52.795Z,73.21
2019-05-22T12:05:19.411Z,72.76
2019-05-22T12:07:46.027Z,72.05
2019-05-22T12:10:12.618Z,71.38
2019-05-22T12:12:39.352Z,70.29
2019-05-22T12:15:06.556Z,69.83
2019-05-22T12:17:38.072Z,70.12
2019-05-22T12:20:01.578Z,69.27
2019-05-22T12:22:28.171Z,69.18
2019-05-22T12:24:54.782Z,69.22
2019-05-22T12:27:21.390Z,70.04
2019-05-22T12:29:47.978Z,69.65
2019-05-22T12:32:14.710Z,70.42
2019-05-22T12:34:41.312Z,70.17
2019-05-22T12:37:07.986Z,70.05
2019-05-22T12:39:34.561Z,69.18
2019-05-22T12:42:01.146Z,68.18
2019-05-22T12:44:27.806Z,68.06
2019-05-22T12:46:54.420Z,67.85
2019-05-22T12:49:21.072Z,68.64
2019-05-22T12:51:47.746Z,68.28
2019-05-22T12:54:14.395Z,67.67
2019-05-22T12:56:41.026Z,67.66
2019-05-22T12:59:07.688Z,68.09
2019-05-22T13:01:34.286Z,67.59
2019-05-22T13:04:00.912Z,68.47
2019-05-22T13:06:27.546Z,68.33
2019-05-22T13:08:54.141Z,68.99
2019-05-22T13:11:20.755Z,68.52
2019-05-22T13:13:47.528Z,68.66
2019-05-22T13:16:14.167Z,67.51
2019-05-22T13:18:40.771Z,68.25
2019-05-22T13:21:07.365Z,68.57
2019-05-22T13:23:33.999Z,68.64
2019-05-22T13:26:00.731Z,68.88
2019-05-22T13:28:27.340Z,69.98
2019-05-22T13:30:53.973Z,69.56
2019-05-22T13:33:20.564Z,69.86
2019-05-22T13:35:47.327Z,70.56
2019-05-22T13:38:14.157Z,71.06
2019-05-22T13:40:40.848Z,71.25
2019-05-22T13:43:07.624Z,71.34
2019-05-22T13:45:36.249Z,71.80
2019-05-22T13:48:02.739Z,72.05
2019-05-22T13:50:29.528Z,72.03
2019-05-22T13:52:56.386Z,72.05
2019-05-22T13:55:23.071Z,72.30
2019-05-22T13:57:49.747Z,72.31
2019-05-22T14:00:16.444Z,72.57
2019-05-22T14:02:43.161Z,72.82
2019-05-22T14:05:13.578Z,72.86
2019-05-22T14:07:38.420Z,73.09
2019-05-22T14:10:05.139Z,73.23
2019-05-22T14:12:31.883Z,73.07
2019-05-22T14:14:58.579Z,73.14
2019-05-22T14:17:25.378Z,72.96
2019-05-22T14:19:52.216Z,73.11
2019-05-22T14:22:18.901Z,73.10
2019-05-22T14:24:45.787Z,72.76
2019-05-22T14:27:12.524Z,72.21
2019-05-22T14:29:39.166Z,71.69
2019-05-22T14:32:06.731Z,70.54
2019-05-22T14:34:33.423Z,70.54
2019-05-22T14:37:00.104Z,71.23
2019-05-22T14:39:26.859Z,71.11
2019-05-22T14:41:53.586Z,70.76
2019-05-22T14:44:20.320Z,70.87
2019-05-22T14:46:47.069Z,70.51
2019-05-22T14:49:13.808Z,71.48
2019-05-22T14:51:40.654Z,70.46
2019-05-22T14:54:09.264Z,71.41
2019-05-22T14:56:38.416Z,71.18
2019-05-22T14:59:05.173Z,70.91
2019-05-22T15:01:31.917Z,70.83
2019-05-22T15:03:59.901Z,71.02
2019-05-22T15:06:30.319Z,70.44
2019-05-22T15:08:57.335Z,71.39
2019-05-22T15:11:24.222Z,70.84
2019-05-22T15:13:51.512Z,70.85
2019-05-22T15:16:18.513Z,71.65
2019-05-22T15:18:45.355Z,72.13
2019-05-22T15:21:12.204Z,70.42
2019-05-22T15:23:39.963Z,71.69
2019-05-22T15:26:07.930Z,70.88
2019-05-22T15:28:35.184Z,71.28
2019-05-22T15:31:02.028Z,70.83
2019-05-22T15:33:29.386Z,71.57
2019-05-22T15:35:57.351Z,70.98
2019-05-22T15:38:25.212Z,71.96
2019-05-22T15:40:51.961Z,71.34
2019-05-22T15:43:21.064Z,72.75
2019-05-22T15:45:48.211Z,72.05
2019-05-22T15:48:15.661Z,71.87
2019-05-22T15:50:42.497Z,72.56
2019-05-22T15:53:12.609Z,72.31
2019-05-22T15:55:38.799Z,72.50
2019-05-22T15:58:07.124Z,73.27
2019-05-22T16:00:35.570Z,73.50
2019-05-22T16:03:04.888Z,72.83
2019-05-22T16:05:31.655Z,73.35
2019-05-22T16:07:58.501Z,73.50
2019-05-22T16:10:25.338Z,74.07
2019-05-22T16:12:59.999Z,74.21
2019-05-22T16:15:26.798Z,73.67
2019-05-22T16:18:10.385Z,73.29
2019-05-22T16:20:22.633Z,73.44
2019-05-22T16:25:38.202Z,73.79
2019-05-22T16:28:05.834Z,73.97
2019-05-22T16:30:34.274Z,73.81
2019-05-22T16:33:01.023Z,73.96
2019-05-22T16:35:28.089Z,74.81
2019-05-22T16:37:55.067Z,74.66
2019-05-22T16:40:21.853Z,74.61
2019-05-22T16:42:50.611Z,74.60
2019-05-22T16:45:17.480Z,74.52
2019-05-22T16:47:44.219Z,74.14
2019-05-22T16:50:11.676Z,74.16
2019-05-22T16:52:38.520Z,74.45
2019-05-22T16:55:05.348Z,75.17
2019-05-22T16:57:32.094Z,74.83
2019-05-22T16:59:58.956Z,74.87
2019-05-22T17:02:26.188Z,75.00
2019-05-22T17:04:53.956Z,75.11
2019-05-22T17:07:20.792Z,74.70
2019-05-22T17:09:47.649Z,74.62
2019-05-22T17:12:14.512Z,75.15
2019-05-22T17:14:41.216Z,75.41
2019-05-22T17:17:08.470Z,75.33
2019-05-22T17:19:35.314Z,75.08
2019-05-22T17:22:02.053Z,75.09
2019-05-22T17:24:28.915Z,74.89
2019-05-22T17:26:55.742Z,75.04
2019-05-22T17:29:22.607Z,74.95
2019-05-22T17:31:49.533Z,75.37
2019-05-22T17:34:16.481Z,75.40
2019-05-22T17:36:43.309Z,74.99
2019-05-22T17:39:10.153Z,75.09
2019-05-22T17:41:37.357Z,75.55
2019-05-22T17:44:04.610Z,75.81
2019-05-22T17:46:31.351Z,75.66
2019-05-22T17:48:58.136Z,76.04
2019-05-22T17:51:26.942Z,76.21
2019-05-22T17:53:53.744Z,75.94
2019-05-22T17:56:20.632Z,76.00
2019-05-22T17:58:47.621Z,76.11
2019-05-22T18:01:14.538Z,76.21
2019-05-22T18:03:42.043Z,76.25
2019-05-22T18:06:08.989Z,76.25
2019-05-22T18:08:37.246Z,76.33
2019-05-22T18:11:05.865Z,76.40
2019-05-22T18:13:32.622Z,76.56
2019-05-22T18:15:59.470Z,77.09
2019-05-22T18:18:26.292Z,76.51
2019-05-22T18:20:53.077Z,76.60
2019-05-22T18:23:19.880Z,77.13
2019-05-22T18:25:46.728Z,77.08
2019-05-22T18:28:15.972Z,76.64
2019-05-22T18:30:43.996Z,76.43
2019-05-22T18:33:10.767Z,76.89
2019-05-22T18:35:37.672Z,76.52
2019-05-22T18:38:05.119Z,76.82
2019-05-22T18:40:32.100Z,76.72
2019-05-22T18:42:58.854Z,76.75
2019-05-22T18:45:25.666Z,77.17
2019-05-22T18:47:53.048Z,77.08
2019-05-22T18:50:19.867Z,76.74
2019-05-22T18:52:46.656Z,76.78
2019-05-22T18:55:13.449Z,77.35
2019-05-22T18:57:40.304Z,77.29
2019-05-22T19:00:07.057Z,77.58
2019-05-22T19:02:33.966Z,77.31
2019-05-22T19:05:00.818Z,77.14
2019-05-22T19:07:27.668Z,77.58
2019-05-22T19:09:54.612Z,77.90
2019-05-22T19:12:21.449Z,77.31
2019-05-22T19:14:48.288Z,77.28
2019-05-22T19:17:15.065Z,77.59
2019-05-22T19:19:41.877Z,77.48
2019-05-22T19:22:08.915Z,77.69
2019-05-22T19:24:35.661Z,77.35
2019-05-22T19:27:02.413Z,77.61
2019-05-22T19:29:29.257Z,77.67
2019-05-22T19:31:57.704Z,77.39
2019-05-22T19:34:24.568Z,77.51
2019-05-22T19:36:51.488Z,78.23
2019-05-22T19:39:18.349Z,77.86
2019-05-22T19:41:59.869Z,78.37
2019-05-22T19:44:14.294Z,77.82
2019-05-22T19:46:41.076Z,77.88
2019-05-22T19:49:07.877Z,77.62
2019-05-22T19:51:34.735Z,78.16
2019-05-22T19:54:03.710Z,77.98
2019-05-22T19:56:30.542Z,77.69
2019-05-22T19:58:57.820Z,77.76
2019-05-22T20:01:24.538Z,77.88
2019-05-22T20:03:51.274Z,77.84
2019-05-22T20:06:18.130Z,77.88
2019-05-22T20:08:44.969Z,77.86
2019-05-22T20:11:11.705Z,77.73
2019-05-22T20:13:38.560Z,78.21
2019-05-22T20:16:06.758Z,77.98
2019-05-22T20:18:33.463Z,77.60
2019-05-22T20:21:00.197Z,77.70
2019-05-22T20:23:36.305Z,78.41
2019-05-22T20:25:57.746Z,78.41
2019-05-22T20:28:24.619Z,78.22
2019-05-22T20:30:51.607Z,77.86
2019-05-22T20:33:18.406Z,78.15
2019-05-22T20:35:45.265Z,77.62
2019-05-22T20:38:12.092Z,77.63
2019-05-22T20:40:41.922Z,78.13
2019-05-22T20:43:08.436Z,77.68
2019-05-22T20:45:35.296Z,77.79
2019-05-22T20:48:02.126Z,78.11
2019-05-22T20:50:28.972Z,77.92
2019-05-22T20:52:55.812Z,78.47
2019-05-22T20:55:22.665Z,77.88
2019-05-22T20:57:49.501Z,77.71
2019-05-22T21:00:16.311Z,78.25
2019-05-22T21:02:43.077Z,78.14
2019-05-22T21:05:12.404Z,78.07
2019-05-22T21:07:39.114Z,78.29
2019-05-22T21:10:06.267Z,77.61
2019-05-22T21:12:35.658Z,78.08
2019-05-22T21:15:01.996Z,77.66
2019-05-22T21:17:28.850Z,77.35
2019-05-22T21:19:55.617Z,77.37
2019-05-22T21:22:22.439Z,77.39
2019-05-22T21:24:49.270Z,77.39
2019-05-22T21:27:16.009Z,77.38
2019-05-22T21:29:42.748Z,77.93
2019-05-22T21:32:09.487Z,77.26
2019-05-22T21:34:36.226Z,77.11
2019-05-22T21:37:03.118Z,77.72
2019-05-22T21:39:30.218Z,77.45
2019-05-22T21:41:57.087Z,77.55
2019-05-22T21:44:23.904Z,77.08
2019-05-22T21:46:50.651Z,77.08
2019-05-22T21:49:17.505Z,76.98
2019-05-22T21:51:44.249Z,77.37
2019-05-22T21:54:11.071Z,77.18
2019-05-22T21:56:37.909Z,77.63
2019-05-22T21:59:04.665Z,77.04
2019-05-22T22:01:31.415Z,77.33
2019-05-22T22:03:58.339Z,77.02
2019-05-22T22:06:25.140Z,77.08
2019-05-22T22:08:51.919Z,77.20
2019-05-22T22:11:18.679Z,77.20
2019-05-22T22:13:45.404Z,77.45
2019-05-22T22:16:12.177Z,77.20
2019-05-22T22:18:38.985Z,77.01
2019-05-22T22:21:05.821Z,77.14
2019-05-22T22:23:32.543Z,77.46
2019-05-22T22:25:59.296Z,77.55
2019-05-22T22:28:26.050Z,77.22
2019-05-22T22:30:52.898Z,77.27
2019-05-22T22:33:19.721Z,77.27
2019-05-22T22:35:46.478Z,77.30
2019-05-22T22:38:13.207Z,77.32
2019-05-22T22:40:40.063Z,77.32
2019-05-22T22:43:06.898Z,77.25
2019-05-22T22:45:33.625Z,77.30
2019-05-22T22:48:00.379Z,77.27
2019-05-22T22:50:27.161Z,77.31
2019-05-22T22:52:54.041Z,77.29
2019-05-22T22:55:20.805Z,77.34
2019-05-22T22:57:47.532Z,77.23
2019-05-22T23:00:14.277Z,77.21
2019-05-22T23:02:41.041Z,77.28
2019-05-22T23:05:07.865Z,77.24
2019-05-22T23:07:34.721Z,77.25
2019-05-22T23:10:01.552Z,77.32
2019-05-22T23:12:28.402Z,77.29
2019-05-22T23:14:56.051Z,77.34
2019-05-22T23:17:22.785Z,77.48
2019-05-22T23:19:49.441Z,77.43
2019-05-22T23:22:16.285Z,77.35
2019-05-22T23:24:43.143Z,77.24
2019-05-22T23:27:09.966Z,77.20
2019-05-22T23:29:36.812Z,77.22
2019-05-22T23:32:03.667Z,77.18
2019-05-22T23:34:30.483Z,77.26
2019-05-22T23:36:57.143Z,77.40
2019-05-22T23:39:23.975Z,77.48
2019-05-22T23:41:50.821Z,77.52
2019-05-22T23:44:17.536Z,77.59
2019-05-22T23:46:44.509Z,77.50
2019-05-22T23:49:11.348Z,77.57
2019-05-22T23:51:38.067Z,77.49
2019-05-22T23:54:04.830Z,77.45
2019-05-22T23:56:31.670Z,77.49
2019-05-22T23:58:58.501Z,77.40
